Santa Barbara — 3FWW8 — position and weather

sailwx.info

Track history (hours):
 
Tides and Currents Weather Stations Pressure Air Temp Water Temp Dewpoint Dewpoint Depression Visibility Wind Speed Wind Dir Waves Ship Positions

Santa Barbara

Last reported at 2015-May-18 14:14 UTC. Time now 2015-Jul-02 21:32 UTC.
Position N 24°52' W 020°33'.
Warning: this ship's position is 45 days out of date.

Length 225 m; draft 8.2 m.

Type: Ship (hazmat cat A). MMSI: 372230000.

Date/timePositionNaut miles runAvg speedWind from/ knotsBaromVisibWave heightAir tempDewpointWater temp
2015-May-18 14:14N 24°52' W 020°33'1014.1
2015-May-18 13:33N 24°59' W 020°25'9314.3
2015-May-18 07:05N 25°59' W 019°07'914.1
2015-May-18 06:27N 26°04' W 018°59'1514.2
2015-May-18 05:24N 26°14' W 018°47'223 6.8
2015-May-16 20:23N 28°54' W 015°51'910.6
2015-May-16 19:33N 29°02' W 015°46'2814.0
2015-May-16 17:33N 29°28' W 015°36'1414.6
2015-May-16 16:33N 29°42' W 015°30'1614.7
2015-May-16 15:30N 29°56' W 015°23'12714.0
2015-May-16 06:27N 31°54' W 014°28'15313.9
2015-May-15 19:28N 34°16' W 013°20'1314.1
2015-May-15 18:33N 34°27' W 013°14'1413.7
2015-May-15 17:33N 34°40' W 013°08'1713.5
2015-May-15 16:17N 34°57' W 013°03'1013.7
2015-May-15 15:32N 35°07' W 012°59'6813.4
2015-May-15 10:27N 36°12' W 012°36'3012.9
2015-May-15 08:09N 36°40' W 012°24'4314.1
2015-May-15 05:08N 37°21' W 012°09'1014.7
2015-May-15 04:28N 37°30' W 012°06'3214.3
2015-May-15 02:15N 38°01' W 011°55'1114.0
2015-May-15 01:29N 38°11' W 011°51'1313.7
2015-May-15 00:32N 38°24' W 011°46'  
Track history (hours):
 
Tides and Currents Weather Stations Pressure Air Temp Water Temp Dewpoint Dewpoint Depression Visibility Wind Speed Wind Dir Waves Ship Positions

Santa Barbara

Last reported at 2015-May-18 14:14 UTC. Time now 2015-Jul-02 21:32 UTC.
Position N 24°52' W 020°33'.
Warning: this ship's position is 45 days out of date.

Length 225 m; draft 8.2 m.

Type: Ship (hazmat cat A). MMSI: 372230000.

Date/timePositionNaut miles runAvg speedWind from/ knotsBaromVisibWave heightAir tempDewpointWater temp
2015-May-18 14:14N 24°52' W 020°33'1014.1
2015-May-18 13:33N 24°59' W 020°25'9314.3
2015-May-18 07:05N 25°59' W 019°07'914.1
2015-May-18 06:27N 26°04' W 018°59'1514.2
2015-May-18 05:24N 26°14' W 018°47'223 6.8
2015-May-16 20:23N 28°54' W 015°51'910.6
2015-May-16 19:33N 29°02' W 015°46'2814.0
2015-May-16 17:33N 29°28' W 015°36'1414.6
2015-May-16 16:33N 29°42' W 015°30'1614.7
2015-May-16 15:30N 29°56' W 015°23'12714.0
2015-May-16 06:27N 31°54' W 014°28'15313.9
2015-May-15 19:28N 34°16' W 013°20'1314.1
2015-May-15 18:33N 34°27' W 013°14'1413.7
2015-May-15 17:33N 34°40' W 013°08'1713.5
2015-May-15 16:17N 34°57' W 013°03'1013.7
2015-May-15 15:32N 35°07' W 012°59'6813.4
2015-May-15 10:27N 36°12' W 012°36'3012.9
2015-May-15 08:09N 36°40' W 012°24'4314.1
2015-May-15 05:08N 37°21' W 012°09'1014.7
2015-May-15 04:28N 37°30' W 012°06'3214.3
2015-May-15 02:15N 38°01' W 011°55'1114.0
2015-May-15 01:29N 38°11' W 011°51'1313.7
2015-May-15 00:32N 38°24' W 011°46'  

Dump ship's entire track history